sensor_id;sensor_type;location;lat;lon;timestamp;pressure;altitude;pressure_sealevel;temperature;humidity
61573;BME280;47465;43.094;12.434;2023-10-09T00:01:55;99490.19;;;17.89;92.94
61573;BME280;47465;43.094;12.434;2023-10-09T00:04:24;99449.16;;;17.63;93.50
61573;BME280;47465;43.094;12.434;2023-10-09T00:06:50;99484.19;;;17.82;95.12
61573;BME280;47465;43.094;12.434;2023-10-09T00:09:17;99474.69;;;17.73;95.60
61573;BME280;47465;43.094;12.434;2023-10-09T00:12:11;99499.44;;;17.81;96.04
61573;BME280;47465;43.094;12.434;2023-10-09T00:14:37;99508.47;;;17.80;96.20
61573;BME280;47465;43.094;12.434;2023-10-09T00:17:04;99431.59;;;17.35;96.71
61573;BME280;47465;43.094;12.434;2023-10-09T00:19:51;99458.00;;;17.46;99.02
61573;BME280;47465;43.094;12.434;2023-10-09T00:22:25;99430.78;;;17.33;99.36
61573;BME280;47465;43.094;12.434;2023-10-09T00:24:54;99439.66;;;17.35;98.28
61573;BME280;47465;43.094;12.434;2023-10-09T00:27:53;99493.69;;;17.70;97.14
61573;BME280;47465;43.094;12.434;2023-10-09T00:30:21;99501.06;;;17.65;97.52
61573;BME280;47465;43.094;12.434;2023-10-09T00:32:47;99471.72;;;17.40;98.26
61573;BME280;47465;43.094;12.434;2023-10-09T00:35:25;99468.88;;;17.43;97.98
61573;BME280;47465;43.094;12.434;2023-10-09T00:38:24;99487.22;;;17.54;98.92
61573;BME280;47465;43.094;12.434;2023-10-09T00:40:59;99463.63;;;17.40;98.91
61573;BME280;47465;43.094;12.434;2023-10-09T00:43:52;99492.00;;;17.47;99.18
61573;BME280;47465;43.094;12.434;2023-10-09T00:46:19;99499.31;;;17.43;100.00
61573;BME280;47465;43.094;12.434;2023-10-09T00:49:06;99494.13;;;17.39;100.00
61573;BME280;47465;43.094;12.434;2023-10-09T00:51:42;99439.97;;;17.07;99.89
61573;BME280;47465;43.094;12.434;2023-10-09T00:54:22;99432.97;;;17.03;99.86
61573;BME280;47465;43.094;12.434;2023-10-09T00:56:54;99462.69;;;17.20;99.67
61573;BME280;47465;43.094;12.434;2023-10-09T00:59:25;99413.78;;;16.92;100.00
61573;BME280;47465;43.094;12.434;2023-10-09T01:01:54;99414.03;;;16.86;100.00
61573;BME280;47465;43.094;12.434;2023-10-09T01:04:54;99472.63;;;17.18;100.00
61573;BME280;47465;43.094;12.434;2023-10-09T01:07:21;99454.47;;;17.03;100.00
61573;BME280;47465;43.094;12.434;2023-10-09T01:09:51;99456.31;;;17.02;100.00
61573;BME280;47465;43.094;12.434;2023-10-09T01:12:20;99458.53;;;16.91;100.00
61573;BME280;47465;43.094;12.434;2023-10-09T01:14:47;99426.19;;;16.72;100.00
61573;BME280;47465;43.094;12.434;2023-10-09T01:17:21;99488.47;;;17.04;100.00
61573;BME280;47465;43.094;12.434;2023-10-09T01:20:02;99484.97;;;17.02;100.00
61573;BME280;47465;43.094;12.434;2023-10-09T01:22:30;99484.66;;;17.10;100.00
61573;BME280;47465;43.094;12.434;2023-10-09T01:24:57;99458.50;;;16.93;100.00
61573;BME280;47465;43.094;12.434;2023-10-09T01:27:23;99473.59;;;16.95;100.00
61573;BME280;47465;43.094;12.434;2023-10-09T01:29:57;99488.78;;;16.96;100.00
61573;BME280;47465;43.094;12.434;2023-10-09T01:32:25;99475.81;;;16.86;100.00
61573;BME280;47465;43.094;12.434;2023-10-09T01:34:54;99478.56;;;16.84;100.00
61573;BME280;47465;43.094;12.434;2023-10-09T01:37:26;99475.91;;;16.82;100.00
61573;BME280;47465;43.094;12.434;2023-10-09T01:39:57;99471.56;;;16.78;100.00
61573;BME280;47465;43.094;12.434;2023-10-09T01:42:24;99475.47;;;16.71;100.00
61573;BME280;47465;43.094;12.434;2023-10-09T01:45:03;99433.31;;;16.51;100.00
61573;BME280;47465;43.094;12.434;2023-10-09T01:47:37;99455.38;;;16.59;100.00
61573;BME280;47465;43.094;12.434;2023-10-09T01:50:04;99441.41;;;16.50;100.00
61573;BME280;47465;43.094;12.434;2023-10-09T01:52:37;99460.72;;;16.59;100.00
61573;BME280;47465;43.094;12.434;2023-10-09T01:55:06;99439.97;;;16.41;100.00
61573;BME280;47465;43.094;12.434;2023-10-09T01:57:34;99468.47;;;16.45;100.00
61573;BME280;47465;43.094;12.434;2023-10-09T02:00:06;99462.41;;;16.40;100.00
61573;BME280;47465;43.094;12.434;2023-10-09T02:02:33;99456.94;;;16.19;100.00
61573;BME280;47465;43.094;12.434;2023-10-09T02:05:00;99480.00;;;16.47;100.00
61573;BME280;47465;43.094;12.434;2023-10-09T02:08:01;99475.69;;;16.43;100.00
61573;BME280;47465;43.094;12.434;2023-10-09T02:10:29;99484.94;;;16.36;100.00
61573;BME280;47465;43.094;12.434;2023-10-09T02:13:14;99474.06;;;16.39;100.00
61573;BME280;47465;43.094;12.434;2023-10-09T02:15:42;99448.97;;;16.18;100.00
61573;BME280;47465;43.094;12.434;2023-10-09T02:18:27;99449.59;;;16.25;100.00
61573;BME280;47465;43.094;12.434;2023-10-09T02:21:18;99477.28;;;16.49;100.00
61573;BME280;47465;43.094;12.434;2023-10-09T02:23:58;99417.94;;;15.87;100.00
61573;BME280;47465;43.094;12.434;2023-10-09T02:26:29;99480.81;;;16.27;100.00
61573;BME280;47465;43.094;12.434;2023-10-09T02:29:14;99486.47;;;16.41;100.00
61573;BME280;47465;43.094;12.434;2023-10-09T02:31:45;99433.34;;;16.06;100.00
61573;BME280;47465;43.094;12.434;2023-10-09T02:34:17;99459.28;;;16.05;100.00
61573;BME280;47465;43.094;12.434;2023-10-09T02:36:48;99480.63;;;16.08;100.00
61573;BME280;47465;43.094;12.434;2023-10-09T02:39:15;99459.75;;;15.93;100.00
61573;BME280;47465;43.094;12.434;2023-10-09T02:42:14;99454.97;;;16.01;100.00
61573;BME280;47465;43.094;12.434;2023-10-09T02:44:59;99489.59;;;16.31;100.00
61573;BME280;47465;43.094;12.434;2023-10-09T02:47:25;99493.59;;;16.20;100.00
61573;BME280;47465;43.094;12.434;2023-10-09T02:49:56;99502.03;;;16.33;100.00
61573;BME280;47465;43.094;12.434;2023-10-09T02:52:55;99469.63;;;16.16;100.00
61573;BME280;47465;43.094;12.434;2023-10-09T02:55:34;99480.84;;;16.26;100.00
61573;BME280;47465;43.094;12.434;2023-10-09T02:58:04;99467.66;;;16.19;100.00
61573;BME280;47465;43.094;12.434;2023-10-09T03:00:32;99452.94;;;16.08;100.00
61573;BME280;47465;43.094;12.434;2023-10-09T03:03:02;99477.53;;;16.19;100.00
61573;BME280;47465;43.094;12.434;2023-10-09T03:05:32;99494.44;;;16.21;100.00
61573;BME280;47465;43.094;12.434;2023-10-09T03:07:59;99500.63;;;16.23;100.00
61573;BME280;47465;43.094;12.434;2023-10-09T03:10:25;99492.53;;;16.01;100.00
61573;BME280;47465;43.094;12.434;2023-10-09T03:12:51;99507.81;;;15.99;100.00
61573;BME280;47465;43.094;12.434;2023-10-09T03:15:18;99485.88;;;15.88;100.00
61573;BME280;47465;43.094;12.434;2023-10-09T03:17:45;99474.22;;;15.89;100.00
61573;BME280;47465;43.094;12.434;2023-10-09T03:20:13;99498.91;;;15.98;100.00
61573;BME280;47465;43.094;12.434;2023-10-09T03:22:43;99457.88;;;15.70;100.00
61573;BME280;47465;43.094;12.434;2023-10-09T03:25:11;99482.47;;;15.82;100.00
61573;BME280;47465;43.094;12.434;2023-10-09T03:27:39;99491.81;;;15.96;100.00
61573;BME280;47465;43.094;12.434;2023-10-09T03:30:09;99491.13;;;15.91;100.00
61573;BME280;47465;43.094;12.434;2023-10-09T03:32:36;99469.38;;;15.75;100.00
61573;BME280;47465;43.094;12.434;2023-10-09T03:35:01;99468.34;;;15.79;100.00
61573;BME280;47465;43.094;12.434;2023-10-09T03:37:28;99513.06;;;16.02;100.00
61573;BME280;47465;43.094;12.434;2023-10-09T03:40:02;99504.31;;;15.97;100.00
61573;BME280;47465;43.094;12.434;2023-10-09T03:42:31;99487.28;;;15.74;100.00
61573;BME280;47465;43.094;12.434;2023-10-09T03:44:59;99525.00;;;15.93;100.00
61573;BME280;47465;43.094;12.434;2023-10-09T03:47:27;99470.38;;;15.71;100.00
61573;BME280;47465;43.094;12.434;2023-10-09T03:49:53;99502.41;;;15.75;100.00
61573;BME280;47465;43.094;12.434;2023-10-09T03:52:19;99476.97;;;15.62;100.00
61573;BME280;47465;43.094;12.434;2023-10-09T03:54:45;99503.75;;;15.87;100.00
61573;BME280;47465;43.094;12.434;2023-10-09T03:57:12;99511.53;;;15.95;100.00
61573;BME280;47465;43.094;12.434;2023-10-09T03:59:45;99514.44;;;15.89;100.00
61573;BME280;47465;43.094;12.434;2023-10-09T04:02:12;99483.19;;;15.63;100.00
61573;BME280;47465;43.094;12.434;2023-10-09T04:04:38;99517.34;;;15.82;100.00
61573;BME280;47465;43.094;12.434;2023-10-09T04:07:04;99502.66;;;15.68;100.00
61573;BME280;47465;43.094;12.434;2023-10-09T04:09:32;99499.88;;;15.72;100.00
61573;BME280;47465;43.094;12.434;2023-10-09T04:12:05;99452.09;;;15.33;100.00
61573;BME280;47465;43.094;12.434;2023-10-09T04:14:47;99498.28;;;15.65;100.00
61573;BME280;47465;43.094;12.434;2023-10-09T04:17:20;99507.09;;;15.69;100.00
61573;BME280;47465;43.094;12.434;2023-10-09T04:20:20;99513.31;;;15.69;100.00
61573;BME280;47465;43.094;12.434;2023-10-09T04:23:01;99514.28;;;15.68;100.00
61573;BME280;47465;43.094;12.434;2023-10-09T04:25:32;99511.63;;;15.67;100.00
61573;BME280;47465;43.094;12.434;2023-10-09T04:28:31;99495.31;;;15.48;100.00
61573;BME280;47465;43.094;12.434;2023-10-09T04:30:58;99500.69;;;15.48;100.00
61573;BME280;47465;43.094;12.434;2023-10-09T04:33:28;99462.94;;;15.29;100.00
61573;BME280;47465;43.094;12.434;2023-10-09T04:36:08;99459.38;;;15.28;100.00
61573;BME280;47465;43.094;12.434;2023-10-09T04:39:07;99511.06;;;15.57;100.00
61573;BME280;47465;43.094;12.434;2023-10-09T04:41:52;99522.56;;;15.60;100.00
61573;BME280;47465;43.094;12.434;2023-10-09T04:44:18;99520.03;;;15.57;100.00
61573;BME280;47465;43.094;12.434;2023-10-09T04:46:44;99489.16;;;15.46;100.00
61573;BME280;47465;43.094;12.434;2023-10-09T04:49:10;99507.16;;;15.42;100.00
61573;BME280;47465;43.094;12.434;2023-10-09T04:52:09;99521.06;;;15.53;100.00
61573;BME280;47465;43.094;12.434;2023-10-09T04:54:44;99501.03;;;15.38;100.00
61573;BME280;47465;43.094;12.434;2023-10-09T04:57:30;99525.59;;;15.51;100.00
61573;BME280;47465;43.094;12.434;2023-10-09T05:00:04;99528.47;;;15.45;100.00
61573;BME280;47465;43.094;12.434;2023-10-09T05:02:33;99507.53;;;15.31;100.00
61573;BME280;47465;43.094;12.434;2023-10-09T05:05:03;99527.66;;;15.43;100.00
61573;BME280;47465;43.094;12.434;2023-10-09T05:08:04;99518.41;;;15.27;100.00
61573;BME280;47465;43.094;12.434;2023-10-09T05:10:45;99525.25;;;15.35;100.00
61573;BME280;47465;43.094;12.434;2023-10-09T05:13:32;99506.03;;;15.23;100.00
61573;BME280;47465;43.094;12.434;2023-10-09T05:16:30;99521.09;;;15.27;100.00
61573;BME280;47465;43.094;12.434;2023-10-09T05:18:58;99536.03;;;15.34;100.00
61573;BME280;47465;43.094;12.434;2023-10-09T05:21:26;99541.19;;;15.40;100.00
61573;BME280;47465;43.094;12.434;2023-10-09T05:24:16;99539.69;;;15.31;100.00
61573;BME280;47465;43.094;12.434;2023-10-09T05:26:46;99531.53;;;15.34;100.00
61573;BME280;47465;43.094;12.434;2023-10-09T05:29:33;99537.72;;;15.36;100.00
61573;BME280;47465;43.094;12.434;2023-10-09T05:32:17;99538.41;;;15.41;100.00
61573;BME280;47465;43.094;12.434;2023-10-09T05:34:53;99531.31;;;15.40;100.00
61573;BME280;47465;43.094;12.434;2023-10-09T05:37:44;99547.28;;;15.44;100.00
61573;BME280;47465;43.094;12.434;2023-10-09T05:40:12;99548.91;;;15.49;100.00
61573;BME280;47465;43.094;12.434;2023-10-09T05:42:55;99556.44;;;15.63;100.00
61573;BME280;47465;43.094;12.434;2023-10-09T05:45:25;99559.44;;;15.54;100.00
61573;BME280;47465;43.094;12.434;2023-10-09T05:48:22;99548.84;;;15.51;100.00
61573;BME280;47465;43.094;12.434;2023-10-09T05:51:02;99550.72;;;15.49;100.00
61573;BME280;47465;43.094;12.434;2023-10-09T05:53:37;99556.88;;;15.51;100.00
61573;BME280;47465;43.094;12.434;2023-10-09T05:56:28;99569.63;;;15.69;100.00
61573;BME280;47465;43.094;12.434;2023-10-09T05:59:12;99567.91;;;15.68;100.00
61573;BME280;47465;43.094;12.434;2023-10-09T06:02:12;99572.13;;;15.75;100.00
61573;BME280;47465;43.094;12.434;2023-10-09T06:05:10;99552.72;;;15.67;100.00
61573;BME280;47465;43.094;12.434;2023-10-09T06:07:55;99571.63;;;16.14;100.00
61573;BME280;47465;43.094;12.434;2023-10-09T06:10:55;99569.75;;;16.16;100.00
61573;BME280;47465;43.094;12.434;2023-10-09T06:13:51;99580.19;;;16.24;100.00
61573;BME280;47465;43.094;12.434;2023-10-09T06:16:29;99564.41;;;16.16;100.00
61573;BME280;47465;43.094;12.434;2023-10-09T06:19:31;99561.38;;;16.26;100.00
61573;BME280;47465;43.094;12.434;2023-10-09T06:22:06;99574.44;;;16.35;100.00
61573;BME280;47465;43.094;12.434;2023-10-09T06:25:02;99587.34;;;16.49;100.00
61573;BME280;47465;43.094;12.434;2023-10-09T06:27:35;99575.59;;;16.51;100.00
61573;BME280;47465;43.094;12.434;2023-10-09T06:30:19;99590.44;;;16.61;100.00
61573;BME280;47465;43.094;12.434;2023-10-09T06:33:04;99581.66;;;16.56;100.00
61573;BME280;47465;43.094;12.434;2023-10-09T06:35:45;99592.56;;;16.75;100.00
61573;BME280;47465;43.094;12.434;2023-10-09T06:38:19;99586.13;;;16.81;100.00
61573;BME280;47465;43.094;12.434;2023-10-09T06:40:50;99569.41;;;16.96;100.00
61573;BME280;47465;43.094;12.434;2023-10-09T06:43:35;99570.47;;;16.92;100.00
61573;BME280;47465;43.094;12.434;2023-10-09T06:46:15;99585.94;;;17.08;100.00
61573;BME280;47465;43.094;12.434;2023-10-09T06:49:10;99589.94;;;17.19;100.00
61573;BME280;47465;43.094;12.434;2023-10-09T06:52:11;99594.06;;;17.28;100.00
61573;BME280;47465;43.094;12.434;2023-10-09T06:54:41;99583.88;;;17.36;100.00
61573;BME280;47465;43.094;12.434;2023-10-09T06:57:16;99583.41;;;17.47;100.00
61573;BME280;47465;43.094;12.434;2023-10-09T07:00:03;99589.75;;;17.66;100.00
61573;BME280;47465;43.094;12.434;2023-10-09T07:02:48;99571.34;;;17.78;100.00
61573;BME280;47465;43.094;12.434;2023-10-09T07:05:17;99591.47;;;18.10;100.00
61573;BME280;47465;43.094;12.434;2023-10-09T07:07:45;99565.78;;;18.03;100.00
61573;BME280;47465;43.094;12.434;2023-10-09T07:10:22;99572.22;;;18.19;100.00
61573;BME280;47465;43.094;12.434;2023-10-09T07:12:59;99540.72;;;18.21;100.00
61573;BME280;47465;43.094;12.434;2023-10-09T07:15:25;99577.41;;;18.43;100.00
61573;BME280;47465;43.094;12.434;2023-10-09T07:18:11;99529.16;;;18.38;100.00
61573;BME280;47465;43.094;12.434;2023-10-09T07:20:45;99539.94;;;18.57;100.00
61573;BME280;47465;43.094;12.434;2023-10-09T07:23:26;99599.38;;;19.11;100.00
61573;BME280;47465;43.094;12.434;2023-10-09T07:26:03;99581.13;;;19.16;100.00
61573;BME280;47465;43.094;12.434;2023-10-09T07:28:44;99597.19;;;19.19;99.74
61573;BME280;47465;43.094;12.434;2023-10-09T07:31:20;99600.06;;;19.34;96.51
61573;BME280;47465;43.094;12.434;2023-10-09T07:33:54;99556.50;;;19.24;95.40
61573;BME280;47465;43.094;12.434;2023-10-09T07:36:23;99564.81;;;19.19;94.80
61573;BME280;47465;43.094;12.434;2023-10-09T07:39:01;99547.94;;;18.97;93.66
61573;BME280;47465;43.094;12.434;2023-10-09T07:41:32;99571.59;;;19.28;92.42
61573;BME280;47465;43.094;12.434;2023-10-09T07:44:30;99583.63;;;19.75;89.62
61573;BME280;47465;43.094;12.434;2023-10-09T07:47:04;99590.53;;;19.98;87.36
61573;BME280;47465;43.094;12.434;2023-10-09T07:50:05;99583.09;;;20.19;84.37
61573;BME280;47465;43.094;12.434;2023-10-09T07:52:37;99584.34;;;20.29;83.97
61573;BME280;47465;43.094;12.434;2023-10-09T07:55:09;99582.19;;;20.36;82.22
61573;BME280;47465;43.094;12.434;2023-10-09T07:57:51;99595.56;;;20.55;79.58
61573;BME280;47465;43.094;12.434;2023-10-09T08:00:17;99594.94;;;20.67;80.00
61573;BME280;47465;43.094;12.434;2023-10-09T08:03:17;99590.94;;;20.90;77.04
61573;BME280;47465;43.094;12.434;2023-10-09T08:05:51;99578.63;;;21.00;76.79
61573;BME280;47465;43.094;12.434;2023-10-09T08:08:32;99585.34;;;21.09;75.82
61573;BME280;47465;43.094;12.434;2023-10-09T08:11:12;99590.59;;;21.28;73.98
61573;BME280;47465;43.094;12.434;2023-10-09T08:14:13;99581.69;;;21.42;75.15
61573;BME280;47465;43.094;12.434;2023-10-09T08:16:59;99580.97;;;21.54;72.08
61573;BME280;47465;43.094;12.434;2023-10-09T08:19:55;99568.75;;;21.47;73.86
61573;BME280;47465;43.094;12.434;2023-10-09T08:22:27;99566.38;;;21.57;72.96
61573;BME280;47465;43.094;12.434;2023-10-09T08:25:08;99559.09;;;21.73;71.85
61573;BME280;47465;43.094;12.434;2023-10-09T08:27:52;99571.22;;;21.96;71.64
61573;BME280;47465;43.094;12.434;2023-10-09T08:30:23;99557.59;;;21.98;69.10
61573;BME280;47465;43.094;12.434;2023-10-09T08:33:10;99568.03;;;22.18;68.69
61573;BME280;47465;43.094;12.434;2023-10-09T08:35:56;99561.13;;;22.28;68.18
61573;BME280;47465;43.094;12.434;2023-10-09T08:38:56;99564.22;;;22.37;67.40
61573;BME280;47465;43.094;12.434;2023-10-09T08:41:24;99579.50;;;22.52;66.60
61573;BME280;47465;43.094;12.434;2023-10-09T08:43:56;99545.91;;;22.40;65.66
61573;BME280;47465;43.094;12.434;2023-10-09T08:46:25;99576.13;;;22.63;64.25
61573;BME280;47465;43.094;12.434;2023-10-09T08:48:53;99557.50;;;21.99;66.86
61573;BME280;47465;43.094;12.434;2023-10-09T08:51:19;99570.22;;;22.42;65.70
61573;BME280;47465;43.094;12.434;2023-10-09T08:53:46;99546.44;;;22.47;63.89
61573;BME280;47465;43.094;12.434;2023-10-09T08:56:14;99561.41;;;22.67;63.97
61573;BME280;47465;43.094;12.434;2023-10-09T08:58:49;99554.16;;;22.39;63.81
61573;BME280;47465;43.094;12.434;2023-10-09T09:01:16;99558.69;;;22.67;63.58
61573;BME280;47465;43.094;12.434;2023-10-09T09:03:45;99556.38;;;22.75;63.10
61573;BME280;47465;43.094;12.434;2023-10-09T09:06:11;99535.53;;;22.75;64.78
61573;BME280;47465;43.094;12.434;2023-10-09T09:08:37;99548.47;;;22.99;62.71
61573;BME280;47465;43.094;12.434;2023-10-09T09:11:05;99547.09;;;23.06;62.59
61573;BME280;47465;43.094;12.434;2023-10-09T09:13:41;99551.97;;;22.87;62.95
61573;BME280;47465;43.094;12.434;2023-10-09T09:16:14;99556.88;;;23.09;61.87
61573;BME280;47465;43.094;12.434;2023-10-09T09:18:49;99519.16;;;23.19;62.24
61573;BME280;47465;43.094;12.434;2023-10-09T09:21:18;99542.91;;;23.42;62.35
61573;BME280;47465;43.094;12.434;2023-10-09T09:23:56;99562.50;;;23.60;62.06
61573;BME280;47465;43.094;12.434;2023-10-09T09:26:34;99542.19;;;23.66;61.01
61573;BME280;47465;43.094;12.434;2023-10-09T09:29:05;99545.09;;;23.77;61.07
61573;BME280;47465;43.094;12.434;2023-10-09T09:31:31;99499.50;;;23.68;60.34
61573;BME280;47465;43.094;12.434;2023-10-09T09:34:04;99547.69;;;24.04;60.74
61573;BME280;47465;43.094;12.434;2023-10-09T09:36:49;99536.72;;;23.93;60.41
61573;BME280;47465;43.094;12.434;2023-10-09T09:39:22;99538.69;;;24.04;59.57
61573;BME280;47465;43.094;12.434;2023-10-09T09:41:55;99521.06;;;24.09;59.36
61573;BME280;47465;43.094;12.434;2023-10-09T09:44:24;99517.38;;;24.23;59.63
61573;BME280;47465;43.094;12.434;2023-10-09T09:46:57;99523.91;;;24.33;59.27
61573;BME280;47465;43.094;12.434;2023-10-09T09:49:27;99480.28;;;24.22;58.45
61573;BME280;47465;43.094;12.434;2023-10-09T09:51:58;99513.56;;;24.13;58.61
61573;BME280;47465;43.094;12.434;2023-10-09T09:54:27;99497.47;;;24.35;58.62
61573;BME280;47465;43.094;12.434;2023-10-09T09:56:54;99529.09;;;24.62;58.97
61573;BME280;47465;43.094;12.434;2023-10-09T09:59:27;99492.56;;;24.53;59.14
61573;BME280;47465;43.094;12.434;2023-10-09T10:01:58;99523.75;;;24.73;58.89
61573;BME280;47465;43.094;12.434;2023-10-09T10:04:32;99493.56;;;24.76;58.00
61573;BME280;47465;43.094;12.434;2023-10-09T10:07:01;99460.94;;;24.76;57.85
61573;BME280;47465;43.094;12.434;2023-10-09T10:09:34;99477.41;;;24.99;57.61
61573;BME280;47465;43.094;12.434;2023-10-09T10:12:04;99471.72;;;25.02;57.44
61573;BME280;47465;43.094;12.434;2023-10-09T10:14:54;99499.94;;;25.25;57.03
61573;BME280;47465;43.094;12.434;2023-10-09T10:17:24;99464.69;;;25.11;57.20
61573;BME280;47465;43.094;12.434;2023-10-09T10:20:03;99494.03;;;25.31;57.17
61573;BME280;47465;43.094;12.434;2023-10-09T10:23:16;99479.91;;;25.26;57.73
61573;BME280;47465;43.094;12.434;2023-10-09T10:25:44;99459.97;;;25.26;56.64
61573;BME280;47465;43.094;12.434;2023-10-09T10:28:21;99490.56;;;25.29;56.69
61573;BME280;47465;43.094;12.434;2023-10-09T10:34:11;99434.97;;;25.20;56.40
61573;BME280;47465;43.094;12.434;2023-10-09T10:36:37;99475.50;;;25.48;56.09
61573;BME280;47465;43.094;12.434;2023-10-09T10:39:08;99474.28;;;25.40;55.30
61573;BME280;47465;43.094;12.434;2023-10-09T10:41:53;99438.22;;;25.37;55.84
61573;BME280;47465;43.094;12.434;2023-10-09T10:44:29;99444.69;;;25.47;55.05
61573;BME280;47465;43.094;12.434;2023-10-09T10:47:05;99455.75;;;25.57;54.94
61573;BME280;47465;43.094;12.434;2023-10-09T10:49:43;99437.56;;;25.57;53.84
61573;BME280;47465;43.094;12.434;2023-10-09T10:52:20;99448.94;;;25.62;53.79
61573;BME280;47465;43.094;12.434;2023-10-09T10:54:45;99419.72;;;25.53;53.27
61573;BME280;47465;43.094;12.434;2023-10-09T10:57:18;99424.44;;;25.62;53.32
61573;BME280;47465;43.094;12.434;2023-10-09T10:59:45;99439.69;;;25.76;53.14
61573;BME280;47465;43.094;12.434;2023-10-09T11:02:13;99421.72;;;25.74;53.35
61573;BME280;47465;43.094;12.434;2023-10-09T11:04:57;99426.31;;;25.85;52.72
61573;BME280;47465;43.094;12.434;2023-10-09T11:07:40;99399.44;;;25.80;51.66
61573;BME280;47465;43.094;12.434;2023-10-09T11:10:07;99399.34;;;25.93;52.12
61573;BME280;47465;43.094;12.434;2023-10-09T11:12:50;99419.53;;;26.13;51.60
61573;BME280;47465;43.094;12.434;2023-10-09T11:15:44;99390.56;;;26.00;51.51
61573;BME280;47465;43.094;12.434;2023-10-09T11:18:10;99382.00;;;26.16;50.41
61573;BME280;47465;43.094;12.434;2023-10-09T11:20:45;99368.00;;;26.21;51.34
61573;BME280;47465;43.094;12.434;2023-10-09T11:23:24;99353.50;;;26.20;50.80
61573;BME280;47465;43.094;12.434;2023-10-09T11:26:04;99366.84;;;26.46;50.46
61573;BME280;47465;43.094;12.434;2023-10-09T11:29:06;99358.75;;;26.56;48.80
61573;BME280;47465;43.094;12.434;2023-10-09T11:31:40;99369.56;;;26.57;49.16
61573;BME280;47465;43.094;12.434;2023-10-09T11:34:18;99366.72;;;26.59;49.64
61573;BME280;47465;43.094;12.434;2023-10-09T11:36:56;99361.31;;;26.69;49.94
61573;BME280;47465;43.094;12.434;2023-10-09T11:39:27;99357.06;;;26.76;49.85
61573;BME280;47465;43.094;12.434;2023-10-09T11:42:01;99354.50;;;26.74;49.00
61573;BME280;47465;43.094;12.434;2023-10-09T11:44:39;99363.63;;;27.05;49.08
61573;BME280;47465;43.094;12.434;2023-10-09T11:47:08;99363.25;;;27.10;47.92
61573;BME280;47465;43.094;12.434;2023-10-09T11:50:06;99355.91;;;27.11;48.46
61573;BME280;47465;43.094;12.434;2023-10-09T11:52:56;99343.59;;;27.16;48.42
61573;BME280;47465;43.094;12.434;2023-10-09T11:55:35;99340.84;;;27.28;46.34
61573;BME280;47465;43.094;12.434;2023-10-09T11:58:02;99343.34;;;27.40;45.18
61573;BME280;47465;43.094;12.434;2023-10-09T12:00:28;99315.28;;;27.29;43.70
61573;BME280;47465;43.094;12.434;2023-10-09T12:02:55;99311.72;;;27.38;43.85
61573;BME280;47465;43.094;12.434;2023-10-09T12:05:22;99314.91;;;27.43;43.78
61573;BME280;47465;43.094;12.434;2023-10-09T12:07:49;99311.06;;;27.45;44.57
61573;BME280;47465;43.094;12.434;2023-10-09T12:10:20;99328.75;;;27.51;42.34
61573;BME280;47465;43.094;12.434;2023-10-09T12:12:51;99302.69;;;27.47;43.75
61573;BME280;47465;43.094;12.434;2023-10-09T12:15:16;99279.03;;;27.57;43.63
61573;BME280;47465;43.094;12.434;2023-10-09T12:17:44;99280.94;;;27.66;41.30
61573;BME280;47465;43.094;12.434;2023-10-09T12:20:10;99300.16;;;27.86;41.73
61573;BME280;47465;43.094;12.434;2023-10-09T12:22:57;99287.66;;;27.93;42.46
61573;BME280;47465;43.094;12.434;2023-10-09T12:25:23;99272.16;;;28.03;37.40
61573;BME280;47465;43.094;12.434;2023-10-09T12:27:49;99256.22;;;28.09;39.24
61573;BME280;47465;43.094;12.434;2023-10-09T12:30:15;99274.66;;;28.26;39.83
61573;BME280;47465;43.094;12.434;2023-10-09T12:32:40;99254.03;;;28.12;40.52
61573;BME280;47465;43.094;12.434;2023-10-09T12:35:07;99259.06;;;28.17;40.51
61573;BME280;47465;43.094;12.434;2023-10-09T12:37:42;99275.81;;;28.33;40.32
61573;BME280;47465;43.094;12.434;2023-10-09T12:40:11;99214.31;;;27.98;40.50
61573;BME280;47465;43.094;12.434;2023-10-09T12:42:37;99214.16;;;27.90;40.58
61573;BME280;47465;43.094;12.434;2023-10-09T12:45:03;99253.50;;;28.28;41.36
61573;BME280;47465;43.094;12.434;2023-10-09T12:47:33;99234.91;;;28.12;42.34
61573;BME280;47465;43.094;12.434;2023-10-09T12:49:59;99218.94;;;28.08;37.28
61573;BME280;47465;43.094;12.434;2023-10-09T12:52:25;99215.34;;;28.07;37.34
61573;BME280;47465;43.094;12.434;2023-10-09T12:54:55;99213.06;;;28.22;36.81
61573;BME280;47465;43.094;12.434;2023-10-09T12:57:22;99239.72;;;28.59;37.20
61573;BME280;47465;43.094;12.434;2023-10-09T12:59:49;99239.13;;;28.65;37.09
61573;BME280;47465;43.094;12.434;2023-10-09T13:02:16;99215.06;;;28.49;35.23
61573;BME280;47465;43.094;12.434;2023-10-09T13:05:15;99251.78;;;28.85;35.22
61573;BME280;47465;43.094;12.434;2023-10-09T13:07:51;99209.75;;;28.67;35.57
61573;BME280;47465;43.094;12.434;2023-10-09T13:10:17;99236.19;;;28.96;33.16
61573;BME280;47465;43.094;12.434;2023-10-09T13:12:43;99242.38;;;28.98;32.40
61573;BME280;47465;43.094;12.434;2023-10-09T13:15:09;99208.28;;;28.73;32.31
61573;BME280;47465;43.094;12.434;2023-10-09T13:17:35;99233.94;;;28.62;33.25
61573;BME280;47465;43.094;12.434;2023-10-09T13:20:02;99240.41;;;28.80;33.67
61573;BME280;47465;43.094;12.434;2023-10-09T13:22:30;99242.25;;;28.90;34.00
61573;BME280;47465;43.094;12.434;2023-10-09T13:24:56;99227.44;;;28.82;34.72
61573;BME280;47465;43.094;12.434;2023-10-09T13:27:29;99233.03;;;28.91;34.77
61573;BME280;47465;43.094;12.434;2023-10-09T13:29:59;99174.91;;;28.50;34.96
61573;BME280;47465;43.094;12.434;2023-10-09T13:32:31;99190.44;;;28.68;35.19